Arago, Minnesota
Current Conditions -  °F | °C
As of 1:27 PM on Saturday 20 Dec 2014 (Local Time) from KPKD Reporting Station
Haze Haze  
Wind Chill: 21°   Ceiling: 400
Heat Index: 30°   Visibility: 4mi
Dew Point: 28°   Wind: 10mph
Humidity: 92%   Direction: 200°SSW
Pressure: 29.99"   Gusts: NA
Location:  46.9966°N, 95.0029°W
Report Text: KPKD 201927Z AUTO 20009KT 4SM BR OVC004 M01/M02 A2999 RMK AO2 T10111022
Loading
Personal Weather Stations






























Interactive Weather Map New forecast layout! Learn more

10-Day Weather Forecast

Advertisements
Track Severe Weather on mobile